Maryland, Indiana
Current Conditions -  °F | °C
As of 6:53 PM on Sunday 25 Jan 2015 (Local Time) from KHUF Reporting Station
Haze Haze  
Wind Chill: 26°   Ceiling: 700
Heat Index: 35°   Visibility: 6mi
Dew Point: 32°   Wind: 15mph
Humidity: 89%   Direction: 30°NNE
Pressure: 29.72"   Gusts: NA
Location:  39.3587°N, 87.4056°W
Report Text: KHUF 252353Z 03013KT 6SM BR OVC007 02/00 A2972 RMK AO2 RAE17 CIG 005V010 SLP067 P0001 60009 T00170000 10039 20017 53030
Loading
Personal Weather Stations






























Interactive Weather Map New forecast layout! Learn more

10-Day Weather Forecast

Advertisements
Track Severe Weather on mobile